createdAt,value
2024-02-23T00:01:36.811Z,103302.56
2024-02-23T00:06:41.710Z,103295.16
2024-02-23T00:11:49.254Z,103291.78
2024-02-23T00:16:53.208Z,103292.91
2024-02-23T00:21:56.840Z,103284.00
2024-02-23T00:27:00.638Z,103309.09
2024-02-23T00:32:05.753Z,103301.56
2024-02-23T00:37:09.768Z,103228.84
2024-02-23T00:42:13.454Z,103286.47
2024-02-23T00:47:17.234Z,103302.69
2024-02-23T00:52:21.320Z,103305.59
2024-02-23T00:57:29.362Z,103270.22
2024-02-23T01:02:35.007Z,103303.94
2024-02-23T01:07:38.815Z,103290.16
2024-02-23T01:13:02.914Z,103297.44
2024-02-23T01:18:09.435Z,103309.63
2024-02-23T01:23:13.369Z,103310.31
2024-02-23T01:28:17.006Z,103316.44
2024-02-23T01:33:20.967Z,103322.56
2024-02-23T01:38:26.920Z,103318.66
2024-02-23T01:43:30.632Z,103334.03
2024-02-23T01:48:35.500Z,103326.50
2024-02-23T01:53:39.597Z,103320.06
2024-02-23T01:58:43.691Z,103334.66
2024-02-23T02:03:47.466Z,103347.19
2024-02-23T02:08:51.557Z,103324.84
2024-02-23T02:13:55.382Z,103343.91
2024-02-23T02:18:59.188Z,103343.56
2024-02-23T02:24:03.042Z,103258.72
2024-02-23T02:29:06.940Z,103327.88
2024-02-23T02:34:15.075Z,103341.31
2024-02-23T02:39:18.925Z,103329.56
2024-02-23T02:44:22.810Z,103276.16
2024-02-23T02:49:26.738Z,103331.38
2024-02-23T02:54:30.544Z,103333.41
2024-02-23T02:59:38.299Z,103337.28
2024-02-23T03:04:49.779Z,103333.47
2024-02-23T03:09:54.111Z,103325.13
2024-02-23T03:14:57.791Z,103320.97
2024-02-23T03:20:01.730Z,103329.41
2024-02-23T03:25:11.991Z,103319.50
2024-02-23T03:30:17.370Z,103328.47
2024-02-23T03:35:21.272Z,103336.31
2024-02-23T03:40:24.875Z,103325.66
2024-02-23T03:45:28.540Z,103319.09
2024-02-23T03:50:33.090Z,103318.69
2024-02-23T03:55:36.836Z,103313.56
2024-02-23T04:00:40.778Z,103299.38
2024-02-23T04:05:44.775Z,103305.78
2024-02-23T04:10:48.674Z,103294.78
2024-02-23T04:15:52.512Z,103300.13
2024-02-23T04:20:56.144Z,103299.16
2024-02-23T04:26:01.901Z,103295.44
2024-02-23T04:31:06.551Z,103295.91
2024-02-23T04:36:10.583Z,103294.19
2024-02-23T04:41:14.570Z,103269.69
2024-02-23T04:46:18.276Z,103295.53
2024-02-23T04:51:24.711Z,103281.13
2024-02-23T04:56:28.536Z,103278.03
2024-02-23T05:01:38.799Z,103270.06
2024-02-23T05:06:45.062Z,103267.91
2024-02-23T05:11:49.235Z,103200.25
2024-02-23T05:16:53.119Z,103265.31
2024-02-23T05:21:57.038Z,103266.41
2024-02-23T05:27:03.942Z,103207.97
2024-02-23T05:32:07.957Z,103256.59
2024-02-23T05:37:11.831Z,103268.88
2024-02-23T05:42:15.802Z,103258.91
2024-02-23T05:47:19.524Z,103256.97
2024-02-23T05:52:23.574Z,103252.22
2024-02-23T05:57:28.726Z,103251.84
2024-02-23T06:02:32.839Z,103249.84
2024-02-23T06:07:36.717Z,103248.56
2024-02-23T06:12:40.677Z,103189.44
2024-02-23T06:17:44.603Z,103183.53
2024-02-23T06:22:48.326Z,103235.03
2024-02-23T06:27:52.198Z,103227.00
2024-02-23T06:32:55.986Z,103229.09
2024-02-23T06:37:59.887Z,103207.44
2024-02-23T06:43:04.524Z,103225.78
2024-02-23T06:48:08.742Z,103217.09
2024-02-23T06:53:12.683Z,103218.44
2024-02-23T06:58:18.691Z,103221.41
2024-02-23T07:03:22.622Z,103204.44
2024-02-23T07:08:26.784Z,103221.16
2024-02-23T07:13:32.102Z,103210.50
2024-02-23T07:18:36.000Z,103187.59
2024-02-23T07:23:39.916Z,103207.88
2024-02-23T07:28:43.859Z,103195.69
2024-02-23T07:33:47.853Z,103177.38
2024-02-23T07:38:51.752Z,103197.22
2024-02-23T07:43:55.578Z,103184.69
2024-02-23T07:48:59.384Z,103186.22
2024-02-23T07:54:04.079Z,103170.22
2024-02-23T07:59:08.010Z,103179.28
2024-02-23T08:04:12.162Z,103173.19
2024-02-23T08:09:16.141Z,103179.19
2024-02-23T08:14:19.891Z,103160.63
2024-02-23T08:19:24.482Z,103172.31
2024-02-23T08:24:28.173Z,103168.28
2024-02-23T08:29:32.027Z,103173.16
2024-02-23T08:34:36.123Z,103156.13
2024-02-23T08:39:39.885Z,103148.50
2024-02-23T08:44:43.899Z,103149.06
2024-02-23T08:49:48.304Z,103150.69
2024-02-23T08:54:53.725Z,103144.69
2024-02-23T09:00:00.015Z,103147.09
2024-02-23T09:05:04.889Z,103141.41
2024-02-23T09:10:09.032Z,103138.13
2024-02-23T09:15:13.091Z,103135.63
2024-02-23T09:20:17.721Z,103126.16
2024-02-23T09:25:21.611Z,103126.91
2024-02-23T09:30:25.451Z,103119.59
2024-02-23T09:35:29.210Z,103116.00
2024-02-23T09:40:33.194Z,103120.03
2024-02-23T09:45:37.131Z,103114.16
2024-02-23T09:50:42.900Z,103107.28
2024-02-23T09:55:47.701Z,103103.13
2024-02-23T10:00:52.897Z,103111.53
2024-02-23T10:05:56.651Z,103093.63
2024-02-23T10:11:02.999Z,103103.13
2024-02-23T10:16:15.090Z,103090.91
2024-02-23T10:21:20.349Z,103092.41
2024-02-23T10:26:24.763Z,103091.22
2024-02-23T10:31:30.157Z,103089.91
2024-02-23T10:36:34.152Z,103051.66
2024-02-23T10:41:41.323Z,103074.47
2024-02-23T10:46:47.139Z,103060.91
2024-02-23T10:51:53.944Z,103070.84
2024-02-23T10:56:58.716Z,103057.00
2024-02-23T11:02:03.631Z,103050.91
2024-02-23T11:07:16.081Z,103058.75
2024-02-23T11:12:31.717Z,103062.78
2024-02-23T11:17:41.556Z,103046.53
2024-02-23T11:22:45.447Z,103047.63
2024-02-23T11:27:53.163Z,103037.69
2024-02-23T11:33:01.609Z,103039.44
2024-02-23T11:38:07.761Z,103038.94
2024-02-23T11:43:12.533Z,103039.56
2024-02-23T11:48:16.572Z,103050.34
2024-02-23T11:53:23.247Z,103040.19
2024-02-23T11:58:26.848Z,103051.50
2024-02-23T12:03:32.319Z,103045.81
2024-02-23T12:08:40.267Z,103043.19
2024-02-23T12:13:44.644Z,103052.09
2024-02-23T12:18:57.447Z,103053.34
2024-02-23T12:24:01.153Z,103054.31
2024-02-23T12:29:05.971Z,103055.31
2024-02-23T12:34:17.460Z,103052.53
2024-02-23T12:39:21.169Z,103044.22
2024-02-23T12:44:25.268Z,102884.94
2024-02-23T12:49:29.319Z,103028.72
2024-02-23T12:54:33.177Z,103034.75
2024-02-23T12:59:36.936Z,103048.91
2024-02-23T13:04:41.048Z,103039.94
2024-02-23T13:09:45.108Z,103046.00
2024-02-23T13:14:48.745Z,103039.75
2024-02-23T13:20:00.894Z,103045.50
2024-02-23T13:25:12.395Z,103030.78
2024-02-23T13:30:16.659Z,103025.00
2024-02-23T13:35:20.598Z,103037.69
2024-02-23T13:40:24.426Z,103034.09
2024-02-23T13:45:28.421Z,103032.25
2024-02-23T13:50:32.589Z,103028.34
2024-02-23T13:55:36.444Z,102954.31
2024-02-23T14:00:40.195Z,103016.94
2024-02-23T14:05:46.736Z,103022.03
2024-02-23T14:10:50.722Z,103018.53
2024-02-23T14:15:55.764Z,102949.44
2024-02-23T14:20:59.739Z,103004.84
2024-02-23T14:26:03.862Z,103013.75
2024-02-23T14:31:07.571Z,103016.53
2024-02-23T14:36:11.561Z,102993.19
2024-02-23T14:41:15.418Z,103005.81
2024-02-23T14:46:19.339Z,103015.72
2024-02-23T14:51:23.458Z,102992.69
2024-02-23T14:56:27.146Z,102929.31
2024-02-23T15:01:31.141Z,102999.63
2024-02-23T15:06:35.243Z,103000.78
2024-02-23T15:11:39.000Z,102996.34
2024-02-23T15:16:43.233Z,102989.47
2024-02-23T15:21:46.971Z,102980.81
2024-02-23T15:26:50.696Z,102987.94
2024-02-23T15:31:54.616Z,102921.63
2024-02-23T15:36:58.264Z,102980.66
2024-02-23T15:42:02.978Z,102982.19
2024-02-23T15:47:07.074Z,102964.63
2024-02-23T15:52:11.162Z,102965.31
2024-02-23T15:57:15.024Z,102970.16
2024-02-23T16:02:19.060Z,102960.28
2024-02-23T16:07:22.909Z,102957.91
2024-02-23T16:12:27.175Z,102950.19
2024-02-23T16:17:30.965Z,102936.78
2024-02-23T16:22:35.109Z,102935.75
2024-02-23T16:27:40.566Z,102960.72
2024-02-23T16:32:44.440Z,102926.16
2024-02-23T16:37:48.302Z,102928.56
2024-02-23T16:42:52.091Z,102933.81
2024-02-23T16:47:56.665Z,102926.56
2024-02-23T16:53:01.526Z,102927.28
2024-02-23T16:58:05.840Z,102907.63
2024-02-23T17:03:10.229Z,102898.78
2024-02-23T17:08:14.781Z,102904.75
2024-02-23T17:13:18.707Z,102901.56
2024-02-23T17:18:25.326Z,102827.97
2024-02-23T17:23:29.072Z,102894.88
2024-02-23T17:28:33.352Z,102888.03
2024-02-23T17:33:37.361Z,102876.88
2024-02-23T17:38:41.299Z,102892.16
2024-02-23T17:43:45.173Z,102881.75
2024-02-23T17:48:48.800Z,102837.22
2024-02-23T17:53:54.507Z,102843.56
2024-02-23T17:58:58.527Z,102838.78
2024-02-23T18:04:02.569Z,102854.41
2024-02-23T18:09:07.165Z,102842.44
2024-02-23T18:14:11.194Z,102825.97
2024-02-23T18:19:15.108Z,102838.88
2024-02-23T18:24:18.744Z,102828.66
2024-02-23T18:29:22.645Z,102816.00
2024-02-23T18:34:26.689Z,102820.22
2024-02-23T18:39:30.653Z,102810.19
2024-02-23T18:44:34.489Z,102810.66
2024-02-23T18:49:38.702Z,102802.53
2024-02-23T18:54:42.865Z,102804.13
2024-02-23T18:59:46.909Z,102807.41
2024-02-23T19:04:50.625Z,102788.84
2024-02-23T19:09:54.512Z,102765.69
2024-02-23T19:14:58.280Z,102790.13
2024-02-23T19:20:02.214Z,102791.56
2024-02-23T19:25:07.132Z,102774.84
2024-02-23T19:30:14.069Z,102765.53
2024-02-23T19:35:17.803Z,102769.59
2024-02-23T19:40:25.617Z,102764.81
2024-02-23T19:45:29.397Z,102763.94
2024-02-23T19:50:33.303Z,102754.53
2024-02-23T19:55:37.212Z,102756.44
2024-02-23T20:00:41.010Z,102761.13
2024-02-23T20:05:44.904Z,102743.44
2024-02-23T20:10:48.715Z,102743.53
2024-02-23T20:15:54.564Z,102747.13
2024-02-23T20:20:58.272Z,102740.78
2024-02-23T20:26:02.141Z,102754.19
2024-02-23T20:31:08.489Z,102732.88
2024-02-23T20:36:14.823Z,102732.03
2024-02-23T20:41:20.857Z,102715.91
2024-02-23T20:46:25.980Z,102719.72
2024-02-23T20:51:30.394Z,102705.75
2024-02-23T20:56:36.221Z,102707.94
2024-02-23T21:01:40.105Z,102696.19
2024-02-23T21:06:44.233Z,102693.50
2024-02-23T21:11:47.835Z,102692.47
2024-02-23T21:16:51.699Z,102699.53
2024-02-23T21:21:55.602Z,102702.72
2024-02-23T21:26:59.260Z,102689.63
2024-02-23T21:32:03.191Z,102692.78
2024-02-23T21:37:08.803Z,102684.91
2024-02-23T21:42:12.480Z,102693.16
2024-02-23T21:47:16.443Z,102677.03
2024-02-23T21:52:20.108Z,102621.41
2024-02-23T21:57:27.465Z,102682.06
2024-02-23T22:02:32.036Z,102675.91
2024-02-23T22:07:38.232Z,102673.25
2024-02-23T22:12:44.148Z,102666.56
2024-02-23T22:17:48.688Z,102677.31
2024-02-23T22:22:52.506Z,102659.72
2024-02-23T22:27:56.368Z,102654.09
2024-02-23T22:33:00.465Z,102661.56
2024-02-23T22:38:05.045Z,102646.53
2024-02-23T22:43:08.925Z,102643.38
2024-02-23T22:48:14.556Z,102634.88
2024-02-23T22:53:18.508Z,102630.75
2024-02-23T22:58:23.000Z,102622.78
2024-02-23T23:03:26.989Z,102626.69
2024-02-23T23:08:31.105Z,102636.63
2024-02-23T23:13:34.915Z,102632.75
2024-02-23T23:18:38.761Z,102622.13
2024-02-23T23:23:42.604Z,102624.75
2024-02-23T23:28:47.071Z,102621.09
2024-02-23T23:33:53.461Z,102613.63
2024-02-23T23:38:58.063Z,102617.34
2024-02-23T23:44:01.660Z,102614.00
2024-02-23T23:49:05.474Z,102611.63
2024-02-23T23:54:09.260Z,102612.56
2024-02-23T23:59:13.841Z,102540.66
